Time;durP1;ratioP1;P1;durP2;ratioP2;P2;SDS_P1;SDS_P2;PMS_P1;PMS_P2;Temp;Humidity;BMP_temperature;BMP_pressure;BME280_temperature;BME280_humidity;BME280_pressure;Samples;Min_cycle;Max_cycle;Signal;HPM_P1;HPM_P2
2023/09/26 00:00:31;;;;;;;0.10;0.10;;;;;;;17.36;60.24;100464.34;7366299;19;20027;-60
2023/09/26 00:02:57;;;;;;;0.10;0.10;;;;;;;17.59;60.26;100515.91;7366768;19;20073;-61
2023/09/26 00:05:23;;;;;;;0.10;0.10;;;;;;;17.63;59.82;100501.56;7367730;19;20082;-60
2023/09/26 00:07:48;;;;;;;0.10;0.10;;;;;;;17.62;60.13;100499.88;7358221;19;20010;-61
2023/09/26 00:10:15;;;;;;;0.10;0.10;;;;;;;17.62;59.94;100497.22;7368323;19;20018;-60
2023/09/26 00:12:41;;;;;;;0.10;0.10;;;;;;;17.58;59.76;100485.13;7359325;19;20015;-60
2023/09/26 00:15:07;;;;;;;0.10;0.10;;;;;;;17.55;59.57;100485.31;7368743;19;20038;-60
2023/09/26 00:17:33;;;;;;;0.10;0.10;;;;;;;17.59;59.54;100481.56;7353269;19;20014;-60
2023/09/26 00:19:58;;;;;;;0.10;0.10;;;;;;;17.58;59.26;100485.13;7368774;19;20474;-63
2023/09/26 00:22:24;;;;;;;0.10;0.10;;;;;;;17.57;59.87;100486.06;7363410;19;20007;-60
2023/09/26 00:24:51;;;;;;;0.10;0.10;;;;;;;17.56;59.83;100479.09;7358057;19;20006;-60
2023/09/26 00:27:17;;;;;;;0.10;0.10;;;;;;;17.55;59.55;100477.38;7367030;19;20011;-60
2023/09/26 00:29:44;;;;;;;0.05;0.05;;;;;;;17.54;59.55;100475.69;7366601;19;20015;-60
2023/09/26 00:32:09;;;;;;;0.10;0.10;;;;;;;17.52;59.89;100473.13;7368457;19;20018;-60
2023/09/26 00:34:35;;;;;;;0.10;0.10;;;;;;;17.53;59.69;100473.97;7367840;19;20005;-60
2023/09/26 00:37:00;;;;;;;0.10;0.10;;;;;;;17.51;58.95;100476.69;7374039;19;20031;-60
2023/09/26 00:39:26;;;;;;;0.10;0.10;;;;;;;17.52;59.01;100485.47;7372407;19;19995;-60
2023/09/26 00:41:51;;;;;;;0.10;0.10;;;;;;;17.52;58.46;100474.91;7367496;19;20117;-60
2023/09/26 00:44:16;;;;;;;0.10;0.10;;;;;;;17.53;58.76;100466.88;7358866;19;19999;-60
2023/09/26 00:46:43;;;;;;;0.10;0.10;;;;;;;17.54;58.10;100459.84;7365338;19;20025;-60
2023/09/26 00:49:10;;;;;;;0.10;0.10;;;;;;;17.55;58.23;100451.84;7363708;19;20003;-60
2023/09/26 00:51:37;;;;;;;0.10;0.10;;;;;;;17.58;58.30;100442.88;7362830;19;20018;-60
2023/09/26 00:54:03;;;;;;;0.10;0.10;;;;;;;17.58;58.37;100448.16;7360204;19;20010;-61
2023/09/26 00:56:29;;;;;;;0.10;0.10;;;;;;;17.60;58.14;100454.22;7364916;19;20130;-60
2023/09/26 00:58:55;;;;;;;0.10;0.10;;;;;;;17.61;58.00;100445.34;7362633;19;20567;-60
2023/09/26 01:01:24;;;;;;;0.10;0.10;;;;;;;17.63;58.09;100454.03;7365599;19;20002;-60
2023/09/26 01:03:50;;;;;;;0.10;0.10;;;;;;;17.62;58.35;100444.41;7364931;19;20014;-60
2023/09/26 01:06:15;;;;;;;0.10;0.10;;;;;;;17.62;58.52;100439.13;7366634;19;20007;-60
2023/09/26 01:08:41;;;;;;;0.10;0.10;;;;;;;17.63;58.02;100435.53;7367123;19;20014;-60
2023/09/26 01:11:08;;;;;;;0.20;0.20;;;;;;;17.60;58.06;100417.25;7364435;19;20339;-60
2023/09/26 01:13:33;;;;;;;0.03;0.03;;;;;;;17.64;57.71;100416.16;7359604;19;20042;-61
2023/09/26 01:16:12;;;;;;;0.10;0.10;;;;;;;17.66;58.01;100419.53;7367712;19;20513;-60
2023/09/26 01:18:37;;;;;;;0.10;0.10;;;;;;;17.66;57.94;100414.25;7366682;19;20011;-60
2023/09/26 01:21:03;;;;;;;0.10;0.10;;;;;;;17.66;57.93;100408.97;7364597;19;20457;-60
2023/09/26 01:23:29;;;;;;;0.10;0.10;;;;;;;17.63;58.29;100403.84;7365387;19;20011;-61
2023/09/26 01:25:55;;;;;;;0.10;0.10;;;;;;;17.68;57.77;100409.72;7369254;19;20831;-60
2023/09/26 01:28:21;;;;;;;0.10;0.10;;;;;;;17.67;58.05;100408.03;7366759;19;20014;-60
2023/09/26 01:30:46;;;;;;;0.10;0.10;;;;;;;17.70;57.71;100413.16;7360726;19;20011;-61
2023/09/26 01:33:16;;;;;;;0.10;0.10;;;;;;;17.68;57.34;100408.88;7362041;19;20007;-60
2023/09/26 01:35:41;;;;;;;0.10;0.10;;;;;;;17.69;56.77;100406.19;7360674;19;20127;-60
2023/09/26 01:38:06;;;;;;;0.13;0.13;;;;;;;17.68;56.60;100408.88;7365310;19;20082;-60
2023/09/26 01:40:32;;;;;;;0.20;0.20;;;;;;;17.57;56.63;100375.16;7361274;19;20018;-61
2023/09/26 01:42:57;;;;;;;0.10;0.10;;;;;;;17.68;56.26;100393.88;7365972;19;20010;-61
2023/09/26 01:45:23;;;;;;;0.10;0.10;;;;;;;17.69;56.59;100398.25;7364021;19;20454;-60
2023/09/26 01:47:50;;;;;;;0.10;0.10;;;;;;;17.67;56.38;100391.34;7362712;19;20029;-60
2023/09/26 01:50:17;;;;;;;0.08;0.08;;;;;;;17.64;56.28;100379.19;7367865;19;20624;-61
2023/09/26 01:52:43;;;;;;;0.10;0.10;;;;;;;17.67;56.44;100380.78;7357494;19;20026;-60
2023/09/26 01:55:27;;;;;;;0.10;0.10;;;;;;;17.59;56.65;100362.75;7365843;19;20014;-60
2023/09/26 01:57:52;;;;;;;0.10;0.10;;;;;;;17.64;56.35;100376.53;7358087;19;20015;-60
2023/09/26 02:00:19;;;;;;;0.10;0.10;;;;;;;17.57;56.07;100360.19;7363401;19;20042;-60
2023/09/26 02:02:47;;;;;;;0.17;0.17;;;;;;;17.66;56.45;100369.38;7363928;19;20021;-60
2023/09/26 02:05:16;;;;;;;0.10;0.10;;;;;;;17.63;56.26;100359.81;7361002;19;20010;-61
2023/09/26 02:07:42;;;;;;;0.10;0.10;;;;;;;17.59;56.57;100363.59;7361008;19;20024;-60
2023/09/26 02:10:08;;;;;;;0.10;0.10;;;;;;;17.61;56.42;100358.22;7333448;19;20128;-60
2023/09/26 02:12:36;;;;;;;0.10;0.10;;;;;;;17.58;56.25;100347.81;7362559;19;20053;-60
2023/09/26 02:15:04;;;;;;;0.10;0.10;;;;;;;17.61;56.17;100347.66;7359162;19;20010;-60
2023/09/26 02:17:29;;;;;;;0.10;0.10;;;;;;;17.60;56.35;100348.59;7359090;19;20042;-60
2023/09/26 02:19:55;;;;;;;0.10;0.10;;;;;;;17.59;56.80;100339.00;7364260;19;20452;-61
2023/09/26 02:22:21;;;;;;;0.10;0.10;;;;;;;17.58;56.80;100334.63;7368205;19;20006;-60
2023/09/26 02:24:51;;;;;;;0.10;0.10;;;;;;;17.60;56.85;100328.31;7360104;19;20031;-60
2023/09/26 02:27:16;;;;;;;0.10;0.10;;;;;;;17.58;56.61;100330.19;7368260;19;20031;-60
2023/09/26 02:29:44;;;;;;;0.10;0.10;;;;;;;17.57;57.20;100317.94;7370585;19;20011;-60
2023/09/26 02:32:10;;;;;;;0.10;0.10;;;;;;;17.56;57.04;100321.50;7368197;19;20837;-61
2023/09/26 02:34:35;;;;;;;0.20;0.20;;;;;;;17.55;57.31;100313.69;7365338;19;20022;-60
2023/09/26 02:37:00;;;;;;;0.10;0.10;;;;;;;17.56;57.17;100310.09;7361151;19;20403;-61
2023/09/26 02:39:26;;;;;;;0.03;0.03;;;;;;;17.54;57.59;100312.00;7371197;19;20010;-61
2023/09/26 02:41:51;;;;;;;0.10;0.10;;;;;;;17.53;57.43;100310.28;7364772;19;20011;-60
2023/09/26 02:44:17;;;;;;;0.10;0.10;;;;;;;17.46;57.51;100293.09;7370118;19;20470;-60
2023/09/26 02:46:42;;;;;;;0.10;0.10;;;;;;;17.52;58.16;100300.66;7369499;19;20013;-60
2023/09/26 02:49:07;;;;;;;0.10;0.10;;;;;;;17.51;57.56;100291.03;7369314;19;20007;-60
2023/09/26 02:51:33;;;;;;;0.10;0.10;;;;;;;17.50;57.50;100305.19;7369426;19;20007;-61
2023/09/26 02:53:58;;;;;;;0.10;0.10;;;;;;;17.48;57.78;100296.50;7368863;19;20009;-60
2023/09/26 02:56:24;;;;;;;0.10;0.10;;;;;;;17.44;58.15;100290.56;7369458;19;20242;-61
2023/09/26 02:58:49;;;;;;;0.10;0.10;;;;;;;17.46;58.51;100293.09;7368483;19;20037;-60
2023/09/26 03:01:19;;;;;;;0.10;0.10;;;;;;;17.47;58.16;100294.78;7371440;19;20007;-60
2023/09/26 03:03:45;;;;;;;0.10;0.10;;;;;;;17.42;58.49;100297.69;7367344;19;20019;-61
2023/09/26 03:06:10;;;;;;;0.10;0.10;;;;;;;17.41;58.91;100289.88;7369059;19;20045;-60
2023/09/26 03:08:35;;;;;;;0.10;0.10;;;;;;;17.30;59.18;100267.59;7369353;19;20677;-60
2023/09/26 03:11:02;;;;;;;0.10;0.10;;;;;;;17.40;58.94;100277.63;7369105;19;20006;-60
2023/09/26 03:13:32;;;;;;;0.10;0.10;;;;;;;17.38;58.98;100278.53;7360054;19;20015;-60
2023/09/26 03:15:58;;;;;;;0.10;0.10;;;;;;;17.28;59.24;100264.16;7370003;19;20779;-61
2023/09/26 03:18:24;;;;;;;0.10;0.10;;;;;;;17.35;59.22;100268.19;7340009;19;20003;-60
2023/09/26 03:20:49;;;;;;;0.10;0.10;;;;;;;17.25;59.26;100247.69;7365668;19;20018;-60
2023/09/26 03:23:15;;;;;;;0.10;0.10;;;;;;;17.35;59.90;100265.53;7368729;19;20014;-61
2023/09/26 03:25:40;;;;;;;0.10;0.10;;;;;;;17.25;59.95;100247.69;7366756;19;20048;-60
2023/09/26 03:28:05;;;;;;;0.10;0.10;;;;;;;17.32;59.82;100257.78;7369061;19;20003;-60
2023/09/26 03:30:31;;;;;;;0.10;0.10;;;;;;;17.35;59.98;100257.63;7369440;19;20027;-60
2023/09/26 03:32:56;;;;;;;0.10;0.10;;;;;;;17.30;59.75;100245.63;7361275;19;20006;-60
2023/09/26 03:35:22;;;;;;;0.10;0.10;;;;;;;17.31;60.42;100231.50;7368366;19;20006;-60
2023/09/26 03:37:47;;;;;;;0.10;0.10;;;;;;;17.35;60.22;100248.84;7365274;19;20013;-61
2023/09/26 03:40:13;;;;;;;0.10;0.10;;;;;;;17.35;60.50;100244.41;7369274;19;20361;-60
2023/09/26 03:42:38;;;;;;;0.10;0.10;;;;;;;17.34;60.50;100226.88;7362795;19;19998;-61
2023/09/26 03:45:05;;;;;;;0.05;0.05;;;;;;;17.35;60.22;100228.59;7367196;19;20025;-60
2023/09/26 03:47:30;;;;;;;0.10;0.10;;;;;;;17.35;60.67;100233.88;7364523;19;20007;-60
2023/09/26 03:49:56;;;;;;;0.10;0.10;;;;;;;17.36;60.51;100227.63;7368769;19;20006;-61
2023/09/26 03:52:21;;;;;;;0.10;0.10;;;;;;;17.36;60.93;100214.44;7365288;19;20007;-60
2023/09/26 03:54:46;;;;;;;0.00;0.00;;;;;;;17.36;60.63;100222.34;7367776;19;20019;-61
2023/09/26 03:57:12;;;;;;;0.10;0.10;;;;;;;17.37;60.56;100215.28;7353462;19;19998;-60
2023/09/26 03:59:37;;;;;;;0.10;0.10;;;;;;;17.40;60.55;100215.13;7370355;19;20285;-61
2023/09/26 04:02:03;;;;;;;0.10;0.10;;;;;;;17.43;60.54;100222.00;7361544;19;19994;-60
2023/09/26 04:04:29;;;;;;;0.10;0.10;;;;;;;17.45;60.45;100212.22;7365493;19;20135;-60
2023/09/26 04:06:54;;;;;;;0.10;0.10;;;;;;;17.47;60.48;100210.31;7373110;19;20882;-60
2023/09/26 04:09:20;;;;;;;0.10;0.10;;;;;;;17.48;60.26;100188.25;7360582;19;20021;-60
2023/09/26 04:11:48;;;;;;;0.10;0.10;;;;;;;17.52;60.55;100190.63;7361428;19;20038;-60
2023/09/26 04:14:13;;;;;;;0.10;0.10;;;;;;;17.53;60.15;100188.81;7367574;19;20047;-60
2023/09/26 04:16:38;;;;;;;0.10;0.10;;;;;;;17.56;59.93;100186.03;7364435;19;20010;-60
2023/09/26 04:19:04;;;;;;;0.08;0.08;;;;;;;17.57;59.87;100177.16;7370124;19;20023;-60
2023/09/26 04:21:29;;;;;;;0.10;0.10;;;;;;;17.60;59.92;100174.34;7362533;19;20425;-61
2023/09/26 04:23:55;;;;;;;0.10;0.10;;;;;;;17.62;60.07;100167.16;7368509;19;20022;-61
2023/09/26 04:26:21;;;;;;;0.10;0.10;;;;;;;17.67;59.69;100157.16;7357454;19;20010;-61
2023/09/26 04:28:46;;;;;;;0.10;0.10;;;;;;;17.66;59.74;100157.28;7368318;19;20641;-60
2023/09/26 04:31:16;;;;;;;0.10;0.10;;;;;;;17.68;59.31;100158.88;7362500;19;20014;-60
2023/09/26 04:33:47;;;;;;;0.10;0.10;;;;;;;17.73;59.62;100159.47;7364813;19;20014;-60
2023/09/26 04:36:12;;;;;;;0.10;0.10;;;;;;;17.71;59.24;100153.41;7359387;19;20021;-61
2023/09/26 04:38:37;;;;;;;0.10;0.10;;;;;;;17.72;59.26;100147.19;7366221;19;20014;-60
2023/09/26 04:41:04;;;;;;;0.10;0.10;;;;;;;17.73;59.60;100146.25;7363662;19;20015;-60
2023/09/26 04:43:33;;;;;;;0.10;0.10;;;;;;;17.76;59.52;100145.25;7368640;19;20057;-60
2023/09/26 04:45:59;;;;;;;0.10;0.10;;;;;;;17.73;59.66;100148.91;7365381;19;20012;-60
2023/09/26 04:48:24;;;;;;;0.10;0.10;;;;;;;17.73;59.47;100140.97;7359785;19;20516;-60
2023/09/26 04:50:50;;;;;;;0.10;0.10;;;;;;;17.73;59.74;100143.63;7363781;19;20011;-60
2023/09/26 04:53:15;;;;;;;0.10;0.10;;;;;;;17.61;59.40;100112.66;7333341;19;20046;-60
2023/09/26 04:55:44;;;;;;;0.10;0.10;;;;;;;17.74;59.41;100134.78;7363052;19;20010;-60
2023/09/26 04:58:09;;;;;;;0.00;0.00;;;;;;;17.71;59.47;100119.06;7366132;19;20020;-60
2023/09/26 05:00:36;;;;;;;0.10;0.10;;;;;;;17.69;59.86;100120.97;7366832;19;20010;-60
2023/09/26 05:03:02;;;;;;;0.10;0.10;;;;;;;17.69;59.46;100112.19;7367197;19;20015;-60
2023/09/26 05:05:28;;;;;;;0.10;0.10;;;;;;;17.71;59.53;100121.72;7359301;19;20035;-60
2023/09/26 05:07:54;;;;;;;0.10;0.10;;;;;;;17.71;59.34;100107.66;7366381;19;20042;-60
2023/09/26 05:10:19;;;;;;;0.10;0.10;;;;;;;17.70;59.93;100101.53;7360832;19;20788;-60
2023/09/26 05:12:45;;;;;;;0.10;0.10;;;;;;;17.60;59.93;100079.28;7364849;19;20430;-60
2023/09/26 05:15:15;;;;;;;0.10;0.10;;;;;;;17.70;60.13;100090.97;7367235;19;20011;-60
2023/09/26 05:17:53;;;;;;;0.10;0.10;;;;;;;17.63;60.11;100079.09;7368433;19;20018;-60
2023/09/26 05:20:19;;;;;;;0.10;0.10;;;;;;;17.67;60.32;100090.31;7359588;19;20465;-60
2023/09/26 05:22:48;;;;;;;0.10;0.10;;;;;;;17.64;60.40;100075.53;7366315;19;20119;-60
2023/09/26 05:25:14;;;;;;;0.10;0.10;;;;;;;17.64;60.83;100063.16;7357960;19;20010;-60
2023/09/26 05:27:40;;;;;;;0.10;0.10;;;;;;;17.65;60.70;100069.28;7362951;19;20784;-60
2023/09/26 05:30:07;;;;;;;0.10;0.10;;;;;;;17.66;60.96;100063.06;7365369;19;20687;-60
2023/09/26 05:32:32;;;;;;;0.13;0.13;;;;;;;17.67;61.29;100048.91;7364210;19;20586;-60
2023/09/26 05:34:58;;;;;;;0.10;0.10;;;;;;;17.61;61.31;100047.50;7359478;19;20006;-60
2023/09/26 05:37:23;;;;;;;0.10;0.10;;;;;;;17.67;61.08;100051.56;7364772;19;20011;-60
2023/09/26 05:39:48;;;;;;;0.10;0.10;;;;;;;17.66;61.67;100047.22;7362977;19;20007;-61
2023/09/26 05:42:14;;;;;;;0.10;0.10;;;;;;;17.67;61.81;100048.91;7365844;19;20014;-60
2023/09/26 05:44:39;;;;;;;0.10;0.10;;;;;;;17.69;61.35;100043.53;7361677;19;20026;-60
2023/09/26 05:47:05;;;;;;;0.10;0.10;;;;;;;17.68;61.71;100040.03;7369339;19;20422;-60
2023/09/26 05:49:30;;;;;;;0.10;0.10;;;;;;;17.68;61.46;100037.41;7359916;19;20007;-60
2023/09/26 05:51:56;;;;;;;0.20;0.20;;;;;;;17.69;61.46;100030.31;7363696;19;20014;-60
2023/09/26 05:54:22;;;;;;;0.10;0.10;;;;;;;17.69;60.83;100025.91;7359075;19;20010;-60
2023/09/26 05:56:47;;;;;;;0.10;0.10;;;;;;;17.71;60.94;100029.28;7366796;19;20482;-60
2023/09/26 05:59:13;;;;;;;0.10;0.10;;;;;;;17.74;61.16;100020.34;7368848;19;20482;-61
2023/09/26 06:01:38;;;;;;;0.10;0.10;;;;;;;17.67;60.35;100001.38;7370385;19;20598;-60
2023/09/26 06:04:04;;;;;;;0.10;0.10;;;;;;;17.79;60.38;100005.06;7372288;19;20014;-60
2023/09/26 06:06:32;;;;;;;0.10;0.10;;;;;;;17.76;60.49;100000.00;7367161;19;20019;-60
2023/09/26 06:08:58;;;;;;;0.10;0.10;;;;;;;17.83;60.32;99999.50;7371949;19;20007;-60
2023/09/26 06:11:23;;;;;;;0.10;0.10;;;;;;;17.86;61.21;100004.59;7357061;19;20021;-60
2023/09/26 06:13:48;;;;;;;0.10;0.10;;;;;;;17.90;63.32;100013.16;7373895;19;20066;-58
2023/09/26 06:16:14;;;;;;;0.10;0.10;;;;;;;17.89;63.34;100001.75;7336997;19;20352;-59
2023/09/26 06:18:39;;;;;;;0.10;0.10;;;;;;;17.86;62.37;100001.94;7373066;19;20010;-59
2023/09/26 06:21:06;;;;;;;0.10;0.10;;;;;;;17.83;61.99;100017.97;7368478;19;20010;-59
2023/09/26 06:23:32;;;;;;;0.10;0.10;;;;;;;17.75;65.96;100000.94;7367537;19;20006;-59
2023/09/26 06:25:59;;;;;;;0.10;0.10;;;;;;;17.62;64.13;100014.88;7371204;19;20510;-58
2023/09/26 06:28:25;;;;;;;0.10;0.10;;;;;;;17.53;65.14;100030.44;7362704;19;20057;-58
2023/09/26 06:30:50;;;;;;;0.10;0.10;;;;;;;17.40;68.95;100029.50;7371278;19;20014;-58
2023/09/26 06:33:16;;;;;;;0.10;0.10;;;;;;;17.26;68.93;100023.28;7375496;19;20022;-57
2023/09/26 06:35:41;;;;;;;0.10;0.10;;;;;;;17.10;70.34;100018.09;7368839;19;20435;-59
2023/09/26 06:38:07;;;;;;;0.10;0.10;;;;;;;17.05;70.15;100029.88;7365571;19;20006;-59
2023/09/26 06:40:32;;;;;;;0.10;0.10;;;;;;;16.95;69.81;100020.81;7364928;19;20507;-59
2023/09/26 06:43:00;;;;;;;0.10;0.10;;;;;;;16.88;70.42;100014.19;7368142;19;20006;-59
2023/09/26 06:45:29;;;;;;;0.10;0.10;;;;;;;16.79;71.08;100029.63;7370921;19;20014;-59
2023/09/26 06:47:55;;;;;;;0.10;0.10;;;;;;;16.71;71.44;100015.16;7368536;19;20486;-59
2023/09/26 06:50:23;;;;;;;0.15;0.15;;;;;;;16.65;72.02;100026.91;7367833;19;20018;-58
2023/09/26 06:52:49;;;;;;;0.10;0.10;;;;;;;16.58;72.98;100034.34;7369473;19;20025;-59
2023/09/26 06:55:14;;;;;;;0.10;0.10;;;;;;;16.55;73.43;100044.22;7367106;19;20010;-58
2023/09/26 06:57:40;;;;;;;0.10;0.10;;;;;;;16.53;73.81;100046.09;7371405;19;20010;-59
2023/09/26 07:00:12;;;;;;;0.05;0.05;;;;;;;16.53;72.91;100046.09;7369596;19;20710;-60
2023/09/26 07:02:39;;;;;;;0.10;0.10;;;;;;;16.49;73.13;100034.03;7365123;19;20010;-60
2023/09/26 07:05:05;;;;;;;;;;;;;;;16.52;66.92;100036.47;7366082;19;20539;-60
2023/09/26 07:07:31;;;;;;;0.10;0.10;;;;;;;16.48;73.08;100034.97;7366631;19;19991;-60
2023/09/26 07:09:58;;;;;;;0.10;0.10;;;;;;;16.45;73.33;100035.13;7365717;19;20391;-61
2023/09/26 07:12:26;;;;;;;0.10;0.10;;;;;;;16.45;73.72;100041.25;7366688;19;20657;-61
2023/09/26 07:14:51;;;;;;;0.10;0.10;;;;;;;16.42;73.92;100035.31;7366856;19;20041;-60
2023/09/26 07:17:17;;;;;;;0.10;0.10;;;;;;;16.39;73.72;100035.50;7363165;19;20010;-60
2023/09/26 07:19:42;;;;;;;0.03;0.03;;;;;;;16.43;72.95;100047.56;7369987;19;20010;-61
2023/09/26 07:22:07;;;;;;;0.10;0.10;;;;;;;16.43;73.41;100044.94;7365940;19;20015;-60
2023/09/26 07:24:33;;;;;;;0.10;0.10;;;;;;;16.39;73.74;100035.50;7358449;19;20097;-61
2023/09/26 07:26:59;;;;;;;0.05;0.05;;;;;;;16.28;72.97;100031.69;7365023;19;20003;-61
2023/09/26 07:29:25;;;;;;;0.10;0.10;;;;;;;16.42;73.78;100045.84;7367232;19;20018;-61
2023/09/26 07:31:51;;;;;;;0.10;0.10;;;;;;;16.35;73.41;100034.81;7364088;19;20011;-61
2023/09/26 07:34:17;;;;;;;0.10;0.10;;;;;;;16.40;74.15;100045.09;7369470;19;20052;-60
2023/09/26 07:36:42;;;;;;;0.10;0.10;;;;;;;16.38;74.02;100044.34;7366394;19;20417;-61
2023/09/26 07:39:08;;;;;;;0.17;0.17;;;;;;;16.41;74.19;100044.16;7364033;19;20715;-61
2023/09/26 07:41:33;;;;;;;0.10;0.10;;;;;;;16.41;74.72;100046.78;7368389;19;20027;-60
2023/09/26 07:43:59;;;;;;;0.10;0.10;;;;;;;16.28;74.57;100036.13;7363563;19;20015;-61
2023/09/26 07:46:24;;;;;;;0.10;0.10;;;;;;;16.40;74.17;100061.75;7335633;19;20006;-61
2023/09/26 07:48:50;;;;;;;0.10;0.10;;;;;;;16.43;74.63;100068.66;7360348;19;20010;-61
2023/09/26 07:51:16;;;;;;;0.10;0.10;;;;;;;16.41;74.14;100065.22;7368259;19;20007;-61
2023/09/26 07:53:42;;;;;;;0.10;0.10;;;;;;;16.28;74.42;100034.31;7366662;19;20015;-61
2023/09/26 07:56:08;;;;;;;0.10;0.10;;;;;;;16.49;72.68;100084.94;7369363;19;20016;-61
2023/09/26 07:58:33;;;;;;;0.10;0.10;;;;;;;16.52;71.74;100078.63;7367904;19;20041;-60
2023/09/26 08:01:00;;;;;;;0.10;0.10;;;;;;;16.55;71.08;100089.03;7361279;19;20007;-60
2023/09/26 08:03:26;;;;;;;0.10;0.10;;;;;;;16.54;73.31;100079.41;7359078;19;20035;-60
2023/09/26 08:06:02;;;;;;;0.10;0.10;;;;;;;16.54;71.38;100079.41;7364673;19;20010;-59
2023/09/26 08:08:31;;;;;;;0.08;0.08;;;;;;;16.51;72.46;100087.50;7369974;19;20974;-60
2023/09/26 08:11:03;;;;;;;0.10;0.10;;;;;;;16.48;71.99;100092.94;7365558;19;20549;-60
2023/09/26 08:13:28;;;;;;;0.10;0.10;;;;;;;16.45;73.74;100103.66;7364915;19;20021;-61
2023/09/26 08:15:54;;;;;;;0.10;0.10;;;;;;;16.45;73.12;100090.47;7359947;19;20045;-62
2023/09/26 08:18:20;;;;;;;0.10;0.10;;;;;;;16.44;72.65;100091.41;7365911;19;20782;-61
2023/09/26 08:20:45;;;;;;;0.10;0.10;;;;;;;16.23;74.46;100078.53;7364690;19;20017;-61
2023/09/26 08:23:11;;;;;;;0.10;0.10;;;;;;;16.40;73.27;100130.25;7367194;19;20010;-62
2023/09/26 08:25:36;;;;;;;0.10;0.10;;;;;;;16.37;74.19;100116.41;7365275;19;20018;-62
2023/09/26 08:28:02;;;;;;;0.10;0.10;;;;;;;16.37;73.99;100126.94;7363950;19;20395;-62
2023/09/26 08:30:28;;;;;;;0.10;0.10;;;;;;;16.35;73.92;100119.97;7366092;19;20672;-61
2023/09/26 08:32:53;;;;;;;0.10;0.10;;;;;;;16.26;75.08;100109.94;7359996;19;20504;-62
2023/09/26 08:35:18;;;;;;;0.10;0.10;;;;;;;16.31;74.14;100123.72;7362370;19;20010;-62
2023/09/26 08:37:44;;;;;;;0.10;0.10;;;;;;;16.33;73.77;100137.66;7362778;19;20074;-62
2023/09/26 08:40:12;;;;;;;0.05;0.05;;;;;;;16.28;75.01;100137.06;7363066;19;20010;-62
2023/09/26 08:42:45;;;;;;;0.08;0.08;;;;;;;16.19;75.08;100124.41;7365922;19;20136;-62
2023/09/26 08:45:11;;;;;;;0.10;0.10;;;;;;;16.33;75.24;100140.31;7366820;19;20010;-63
2023/09/26 08:47:42;;;;;;;0.10;0.10;;;;;;;16.40;75.69;100134.69;7359340;19;20038;-63
2023/09/26 08:50:07;;;;;;;0.10;0.10;;;;;;;16.55;75.46;100147.00;7364062;19;20009;-63
2023/09/26 08:52:34;;;;;;;0.10;0.10;;;;;;;16.56;75.94;100119.72;7365675;19;20010;-62
2023/09/26 08:55:00;;;;;;;0.10;0.10;;;;;;;16.76;76.07;100153.72;7360154;19;20027;-63
2023/09/26 08:57:25;;;;;;;0.10;0.10;;;;;;;16.88;76.03;100161.88;7364077;19;20010;-63
2023/09/26 08:59:53;;;;;;;0.10;0.10;;;;;;;16.86;76.23;100147.00;7362375;19;20017;-63
2023/09/26 09:02:19;;;;;;;0.10;0.10;;;;;;;17.02;75.44;100162.78;7364835;19;20605;-63
2023/09/26 09:04:45;;;;;;;0.10;0.10;;;;;;;17.08;75.22;100162.44;7365703;19;20010;-63
2023/09/26 09:07:12;;;;;;;0.10;0.10;;;;;;;17.21;75.38;100183.66;7366182;19;20025;-63
2023/09/26 09:09:58;;;;;;;0.10;0.10;;;;;;;17.30;75.07;100188.41;7364147;19;20010;-64
2023/09/26 09:12:23;;;;;;;0.10;0.10;;;;;;;17.41;74.98;100200.13;7371832;19;20435;-64
2023/09/26 09:14:48;;;;;;;0.10;0.10;;;;;;;17.52;75.32;100208.25;7367987;19;20009;-64
2023/09/26 09:17:14;;;;;;;0.10;0.10;;;;;;;17.66;75.14;100210.94;7363054;19;20006;-64
2023/09/26 09:19:51;;;;;;;0.10;0.10;;;;;;;17.84;74.37;100204.59;7360832;19;20680;-64
2023/09/26 09:22:19;;;;;;;0.10;0.10;;;;;;;17.96;74.49;100228.56;7367947;19;20090;-64
2023/09/26 09:24:55;;;;;;;0.10;0.10;;;;;;;18.15;74.31;100223.84;7365230;19;20828;-64
2023/09/26 09:27:35;;;;;;;0.10;0.10;;;;;;;18.36;74.52;100230.44;7365045;19;20021;-64
2023/09/26 09:30:11;;;;;;;0.10;0.10;;;;;;;18.51;74.57;100247.13;7367169;19;20021;-64
2023/09/26 09:32:39;;;;;;;0.10;0.10;;;;;;;18.51;73.70;100219.84;7361825;19;20011;-64
2023/09/26 09:35:05;;;;;;;0.10;0.10;;;;;;;18.66;73.67;100246.16;7364799;19;20014;-64
2023/09/26 09:37:30;;;;;;;0.10;0.10;;;;;;;18.60;72.93;100222.75;7357577;19;20007;-64
2023/09/26 09:39:57;;;;;;;0.10;0.10;;;;;;;18.71;73.51;100248.56;7366669;19;20018;-64
2023/09/26 09:42:22;;;;;;;0.10;0.10;;;;;;;18.73;74.01;100227.28;7358913;19;20021;-64
2023/09/26 09:44:48;;;;;;;0.10;0.10;;;;;;;18.93;74.38;100242.72;7366819;19;20113;-64
2023/09/26 09:47:21;;;;;;;0.10;0.10;;;;;;;19.19;74.64;100254.25;7358505;19;20043;-65
2023/09/26 09:49:48;;;;;;;0.10;0.10;;;;;;;19.37;74.37;100253.06;7361143;19;20021;-64
2023/09/26 09:52:17;;;;;;;0.15;0.15;;;;;;;19.68;74.71;100254.53;7362610;19;20039;-64
2023/09/26 09:54:45;;;;;;;0.10;0.10;;;;;;;19.91;74.01;100255.59;7364097;19;20015;-64
2023/09/26 09:57:14;;;;;;;0.10;0.10;;;;;;;20.19;73.58;100240.44;7357211;19;20027;-65
2023/09/26 09:59:42;;;;;;;0.10;0.10;;;;;;;20.31;73.39;100238.72;7362404;19;20021;-64
2023/09/26 10:02:11;;;;;;;0.10;0.10;;;;;;;20.36;72.40;100232.13;7360408;19;20067;-64
2023/09/26 10:04:37;;;;;;;0.10;0.10;;;;;;;20.61;72.47;100249.84;7365932;19;20014;-64
2023/09/26 10:07:03;;;;;;;0.00;0.00;;;;;;;20.85;72.54;100262.31;7361465;19;20010;-64
2023/09/26 10:09:31;;;;;;;0.10;0.10;;;;;;;21.07;72.56;100253.63;7365476;19;20014;-64
2023/09/26 10:11:58;;;;;;;0.10;0.10;;;;;;;21.19;72.48;100234.13;7349871;19;20015;-64
2023/09/26 10:14:25;;;;;;;0.10;0.10;;;;;;;21.42;71.44;100251.88;7360836;19;20014;-64
2023/09/26 10:16:53;;;;;;;0.20;0.20;;;;;;;21.49;71.19;100244.28;7366908;19;20010;-64
2023/09/26 10:19:19;;;;;;;0.10;0.10;;;;;;;21.70;71.03;100241.81;7360858;19;20791;-64
2023/09/26 10:21:44;;;;;;;0.10;0.10;;;;;;;21.81;70.04;100227.72;7361132;19;20010;-64
2023/09/26 10:24:09;;;;;;;0.10;0.10;;;;;;;21.97;70.52;100228.22;7359415;19;20010;-64
2023/09/26 10:26:49;;;;;;;0.10;0.10;;;;;;;22.12;71.16;100242.16;7358383;19;20010;-64
2023/09/26 10:29:36;;;;;;;0.10;0.10;;;;;;;22.24;71.47;100228.72;7360882;19;20021;-64
2023/09/26 10:32:07;;;;;;;0.10;0.10;;;;;;;22.32;70.70;100233.47;7363665;19;20025;-65
2023/09/26 10:34:37;;;;;;;0.20;0.20;;;;;;;22.52;70.49;100229.22;7358906;19;20482;-64
2023/09/26 10:37:07;;;;;;;0.10;0.10;;;;;;;22.73;70.26;100219.50;7366435;19;20010;-64
2023/09/26 10:39:40;;;;;;;0.10;0.10;;;;;;;23.04;70.79;100239.16;7364247;19;20010;-64
2023/09/26 10:42:20;;;;;;;0.10;0.10;;;;;;;23.20;70.41;100213.91;7358037;19;20066;-64
2023/09/26 10:44:46;;;;;;;0.10;0.10;;;;;;;23.44;69.37;100238.53;7374749;19;20647;-64
2023/09/26 10:47:15;;;;;;;0.10;0.10;;;;;;;23.58;68.77;100212.53;7368478;19;20002;-64
2023/09/26 10:49:41;;;;;;;0.10;0.10;;;;;;;23.63;68.06;100213.00;7357011;19;20014;-64
2023/09/26 10:52:10;;;;;;;0.10;0.10;;;;;;;23.95;67.46;100236.94;7370110;19;20043;-64
2023/09/26 10:54:37;;;;;;;0.05;0.05;;;;;;;24.08;67.88;100242.91;7361201;19;20010;-64
2023/09/26 10:57:03;;;;;;;0.08;0.08;;;;;;;24.17;67.36;100241.25;7371057;19;20014;-64
2023/09/26 10:59:30;;;;;;;0.00;0.00;;;;;;;24.23;67.05;100235.38;7365319;19;20652;-63
2023/09/26 11:02:00;;;;;;;0.10;0.10;;;;;;;24.54;67.99;100245.09;7369901;19;20493;-63
2023/09/26 11:04:31;;;;;;;0.10;0.10;;;;;;;24.71;67.81;100240.06;7366369;19;21163;-64
2023/09/26 11:06:58;;;;;;;0.10;0.10;;;;;;;24.84;66.29;100256.69;7364754;19;20757;-64
2023/09/26 11:09:24;;;;;;;0.10;0.10;;;;;;;25.01;65.61;100252.50;7367728;19;20018;-64
2023/09/26 11:11:49;;;;;;;0.10;0.10;;;;;;;24.99;64.93;100246.44;7365353;19;20015;-64
2023/09/26 11:14:16;;;;;;;0.10;0.10;;;;;;;24.97;64.75;100251.91;7376610;19;20033;-64
2023/09/26 11:16:42;;;;;;;0.10;0.10;;;;;;;24.84;64.40;100248.69;7363288;19;20294;-63
2023/09/26 11:19:10;;;;;;;0.00;0.00;;;;;;;24.69;64.60;100252.72;7370066;19;20517;-63
2023/09/26 11:21:36;;;;;;;0.00;0.00;;;;;;;24.38;65.66;100230.53;7368569;19;20010;-63